Latest Weather Observations for Lochington

IDQ60801

Issued at 7:07 pm EST Friday 30 January 2015 (issued every 30 minutes, with the page automatically refreshed every 10 minutes)

About weather observations | Map of weather stations | Latest weather observations for QLD | Other Formats
Station Details ID: 035139 Name: LOCHINGTON Lat: -23.94 Lon: 147.53 Height: 267.19 m
Data from the previous 72 hours. | See also: Recent months at Lochington
Date/Time
EST
Temp
°C
App
Temp
°C
Dew
Point
Rel
Hum
%
Delta-T
°C
Wind Press
QNH
hPa
Press
MSL
hPa
Rain
since 9 am
mm
Dir
 
Spd
km/h
Gust
km/h
Spd
kts
Gust
kts
30/07:00pm 28.5 30.1 18.3 54 6.6 NE 7 7 4 4 1006.5 1004.6 0.0
30/06:30pm 30.0 31.7 17.1 46 8.2 NE 4 6 2 3 1006.3 1004.4 0.0
30/06:00pm 30.8 31.3 15.6 39 9.5 NE 7 11 4 6 1006.1 1004.2 0.0
30/05:30pm 32.0 33.4 15.5 37 10.4 SW 2 2 1 1 1006.0 1004.1 0.0
30/05:00pm 31.5 32.2 14.6 36 10.5 ESE 4 6 2 3 1005.9 1004.0 0.0
30/04:30pm 31.3 31.6 14.9 37 10.2 E 7 15 4 8 1005.9 1004.0 0.0
30/04:00pm 31.2 31.8 15.2 38 10.0 SSE 6 7 3 4 1006.0 1004.1 0.0
30/03:30pm 31.2 31.8 15.2 38 10.0 E 6 9 3 5 1006.3 1004.4 0.0
30/03:00pm 31.5 32.3 15.9 39 9.8 SE 6 9 3 5 1006.7 1004.8 0.0
30/02:30pm 31.6 32.7 15.5 37 10.1 WSW 4 6 2 3 1007.1 1005.3 0.0
30/02:00pm 31.2 32.7 17.5 44 8.8 SW 6 11 3 6 1007.3 1005.5 0.0
30/01:30pm 30.0 31.2 16.8 45 8.4 ENE 6 11 3 6 1007.9 1006.1 0.0
30/01:00pm 29.6 30.9 17.1 47 8.0 E 6 9 3 5 1008.4 1006.5 0.0
30/12:30pm 30.5 32.1 17.9 47 8.2 ENE 6 11 3 6 1008.7 1006.8 0.0
30/12:00pm 29.3 30.4 18.1 51 7.2 ENE 9 13 5 7 1009.0 1007.1 0.0
30/11:30am 29.6 31.7 19.0 53 6.9 NE 6 13 3 7 1009.5 1007.6 0.0
30/11:00am 28.5 30.8 19.4 57 6.0 NE 6 13 3 7 1010.0 1008.1 0.0
30/10:30am 27.2 30.4 20.5 67 4.5 NE 4 7 2 4 1010.1 1008.2 0.0
30/10:00am 26.4 29.0 20.0 68 4.2 ENE 6 9 3 5 1010.1 1008.2 0.0
30/09:30am 25.4 27.9 20.2 73 3.4 NNE 7 9 4 5 1010.1 1008.2 0.0
30/09:00am 24.9 27.0 20.2 75 3.1 NNE 9 13 5 7 1010.1 1008.2 0.0
30/08:30am 23.8 26.2 20.1 80 2.4 NNE 7 13 4 7 1010.3 1008.5 0.0
30/08:00am 23.2 25.7 20.3 84 1.9 E 7 11 4 6 1010.0 1008.1 0.0
30/07:30am 23.5 26.2 20.6 84 1.9 ESE 7 11 4 6 1009.7 1007.8 0.0
30/07:00am 22.7 25.3 20.0 85 1.8 ESE 6 9 3 5 1009.6 1007.7 0.0
30/06:30am 21.9 25.3 20.2 90 1.1 ESE 2 4 1 2 1009.3 1007.4 0.0
30/06:00am 20.7 23.8 19.5 93 0.8 ESE 2 4 1 2 1009.1 1007.2 0.0
30/05:30am 20.6 24.0 19.4 93 0.8 CALM 0 0 0 0 1008.7 1006.8 0.0
30/05:00am 20.6 23.7 19.4 93 0.8 ESE 2 4 1 2 1008.4 1006.5 0.0
30/04:30am 20.8 23.2 19.6 93 0.8 E 6 6 3 3 1008.1 1006.3 0.0
30/04:00am 21.1 23.9 19.7 92 0.9 E 4 6 2 3 1008.1 1006.3 0.0
30/03:30am 21.7 24.8 20.2 91 1.0 ENE 4 6 2 3 1008.0 1006.2 0.0
30/03:00am 21.8 24.9 20.3 91 1.0 ENE 4 6 2 3 1007.9 1006.1 0.0
30/02:30am 22.0 25.4 20.1 89 1.2 NE 2 4 1 2 1008.0 1006.2 0.0
30/02:00am 22.1 26.0 20.4 90 1.1 CALM 0 0 0 0 1008.4 1006.5 0.0
30/01:30am 22.5 26.3 20.2 87 1.5 CALM 0 2 0 1 1008.6 1006.7 0.0
30/01:00am 22.7 26.8 20.8 89 1.3 CALM 0 2 0 1 1008.7 1006.8 0.0
30/12:30am 22.6 26.7 20.7 89 1.2 CALM 0 2 0 1 1008.8 1006.9 0.0
30/12:00am 22.8 26.9 20.7 88 1.4 CALM 0 0 0 0 1009.1 1007.2 0.0
 
Date/Time
EST
Temp
°C
App
Temp
°C
Dew
Point
Rel
Hum
%
Delta-T
°C
Wind Press
QNH
hPa
Press
MSL
hPa
Rain
since 9 am
mm
Dir
 
Spd
km/h
Gust
km/h
Spd
kts
Gust
kts
29/11:30pm 23.1 26.3 20.6 86 1.6 NE 4 6 2 3 1009.1 1007.2 0.0
29/11:00pm 23.1 26.3 20.6 86 1.6 ENE 4 6 2 3 1009.1 1007.2 0.0
29/10:30pm 23.6 26.7 20.3 82 2.2 NE 4 6 2 3 1008.9 1007.0 0.0
29/10:00pm 23.8 26.4 20.5 82 2.2 ENE 7 7 4 4 1008.7 1006.8 0.0
29/09:30pm 24.2 26.9 20.7 81 2.3 ENE 7 9 4 5 1008.4 1006.5 0.0
29/09:00pm 24.5 27.4 21.0 81 2.3 ENE 7 11 4 6 1007.9 1006.1 0.0
29/08:30pm 24.9 27.8 21.0 79 2.6 NE 7 11 4 6 1007.5 1005.7 0.0
29/08:00pm 26.0 28.4 19.6 68 4.2 ENE 6 9 3 5 1007.1 1005.3 0.0
29/07:30pm 25.9 28.2 19.8 69 4.0 E 7 7 4 4 1006.9 1005.1 0.0
29/07:00pm 27.5 29.0 18.8 59 5.7 ESE 9 13 5 7 1006.7 1004.8 0.0
29/06:30pm 28.9 29.8 18.4 53 6.8 ESE 11 17 6 9 1006.1 1004.2 0.0
29/06:00pm 29.6 31.8 19.6 55 6.6 SSW 7 11 4 6 1005.7 1003.8 0.0
29/05:30pm 30.3 32.0 18.4 49 7.7 SE 7 13 4 7 1005.5 1003.6 0.0
29/05:00pm 29.4 30.3 18.5 52 7.1 SE 11 15 6 8 1005.2 1003.3 0.0
29/04:30pm 30.1 31.7 18.2 49 7.7 E 7 11 4 6 1005.3 1003.4 0.0
29/04:00pm 30.6 32.1 19.0 50 7.6 E 9 15 5 8 1005.2 1003.3 0.0
29/03:30pm 31.0 33.6 20.0 52 7.3 E 6 11 3 6 1005.3 1003.4 0.0
29/03:00pm 30.8 33.0 19.2 50 7.7 SE 6 13 3 7 1005.7 1003.8 0.0
29/02:30pm 30.4 32.8 20.0 53 6.9 E 7 15 4 8 1005.9 1004.0 0.0
29/02:00pm 29.9 31.7 19.6 54 6.8 ESE 9 19 5 10 1006.1 1004.2 0.0
29/01:30pm 29.6 31.3 20.2 57 6.3 E 11 20 6 11 1006.4 1004.5 0.0
29/01:00pm 28.4 29.6 19.1 57 6.1 E 11 19 6 10 1006.7 1004.8 0.0
29/12:30pm 29.2 31.3 20.9 61 5.6 E 11 20 6 11 1007.0 1005.2 0.0
29/12:00pm 27.5 29.4 19.8 63 5.1 SE 9 15 5 8 1007.4 1005.6 0.0
29/11:30am 27.4 29.4 20.0 64 4.9 E 9 17 5 9 1007.7 1005.9 0.0
29/11:00am 27.5 29.5 20.8 67 4.5 ESE 11 19 6 10 1007.8 1006.0 0.0
29/10:30am 26.9 28.3 20.3 67 4.4 E 13 20 7 11 1008.0 1006.2 0.0
29/10:00am 25.8 26.8 19.4 67 4.2 E 13 22 7 12 1008.1 1006.3 0.0
29/09:30am 26.3 27.3 20.2 69 4.0 ESE 15 20 8 11 1008.5 1006.6 0.0
29/09:00am 25.4 26.3 20.0 72 3.5 ESE 15 22 8 12 1008.5 1006.6 16.4
29/08:30am 24.6 25.9 20.1 76 2.9 ESE 13 20 7 11 1008.2 1006.4 16.4
29/08:00am 24.1 25.2 20.4 80 2.4 ESE 15 20 8 11 1008.0 1006.2 16.4
29/07:30am 22.9 24.0 20.4 86 1.6 ESE 15 22 8 12 1007.7 1005.9 16.4
29/07:00am 23.3 25.6 20.6 85 1.8 ESE 9 13 5 7 1007.4 1005.6 16.4
29/06:30am 22.4 24.2 20.3 88 1.4 ESE 11 15 6 8 1007.0 1005.2 16.4
29/06:00am 22.3 24.4 20.9 92 0.9 SE 11 15 6 8 1006.7 1004.8 16.4
29/05:30am 22.3 25.7 20.9 92 0.9 E 4 7 2 4 1006.3 1004.4 16.4
29/05:00am 22.3 25.3 20.8 91 1.0 ENE 6 9 3 5 1005.9 1004.0 16.4
29/04:30am 22.4 25.4 20.9 91 1.0 NE 6 9 3 5 1005.8 1003.9 16.4
29/04:00am 22.4 25.3 20.7 90 1.1 ENE 6 13 3 7 1005.8 1003.9 16.4
29/03:30am 22.5 25.4 21.1 92 0.9 NE 7 13 4 7 1005.6 1003.7 16.4
29/03:00am 22.5 26.1 21.3 93 0.8 NE 4 6 2 3 1005.5 1003.6 16.4
29/02:30am 22.6 26.2 21.2 92 0.9 ENE 4 6 2 3 1005.5 1003.6 16.4
29/02:00am 22.7 26.4 21.5 93 0.8 E 4 6 2 3 1005.4 1003.5 16.4
29/01:30am 22.8 26.8 21.4 92 0.9 NE 2 6 1 3 1005.6 1003.7 16.4
29/01:00am 22.8 26.9 21.6 93 0.8 ENE 2 6 1 3 1005.7 1003.8 16.4
29/12:30am 22.5 26.5 21.3 93 0.8 E 2 4 1 2 1005.9 1004.0 16.4
29/12:00am 22.4 26.6 21.0 92 0.9 CALM 0 0 0 0 1006.2 1004.3 16.4
 
Date/Time
EST
Temp
°C
App
Temp
°C
Dew
Point
Rel
Hum
%
Delta-T
°C
Wind Press
QNH
hPa
Press
MSL
hPa
Rain
since 9 am
mm
Dir
 
Spd
km/h
Gust
km/h
Spd
kts
Gust
kts
28/11:30pm 22.1 26.4 21.1 94 0.7 CALM 0 0 0 0 1006.5 1004.6 16.4
28/11:00pm 22.1 26.0 21.1 94 0.7 SW 2 4 1 2 1006.4 1004.5 16.4
28/10:30pm 22.0 25.2 20.5 91 1.0 E 4 7 2 4 1006.3 1004.4 16.4
28/10:00pm 22.2 25.3 21.0 93 0.8 E 6 7 3 4 1006.1 1004.2 16.4
28/09:30pm 22.4 25.4 20.9 91 1.0 ENE 6 7 3 4 1006.1 1004.2 16.4
28/09:00pm 22.3 25.5 20.6 90 1.1 ENE 4 7 2 4 1005.7 1003.8 16.4
28/08:30pm 22.4 26.0 20.5 89 1.2 NNE 2 4 1 2 1005.4 1003.5 16.4
28/08:00pm 22.4 25.1 20.7 90 1.1 ENE 7 13 4 7 1005.0 1003.1 16.4
28/07:30pm 22.2 24.1 20.5 90 1.1 ENE 11 17 6 9 1004.4 1002.5 16.4
28/07:00pm 22.0 24.6 20.5 91 1.0 E 7 13 4 7 1004.1 1002.3 16.4
28/06:30pm 21.7 23.7 20.7 94 0.7 ESE 11 15 6 8 1003.4 1001.5 16.2
28/06:00pm 21.2 23.4 20.5 96 0.5 SE 9 13 5 7 1003.3 1001.4 15.6
28/05:30pm 20.8 20.5 19.1 90 1.1 SW 19 33 10 18 1004.4 1002.5 6.0
28/05:28pm 21.0 20.5 19.1 89 1.2 SW 20 39 11 21 1004.1 1002.3 5.0
28/05:00pm 25.3 24.3 18.0 64 4.7 SSE 20 33 11 18 1002.0 1000.1 0.2
28/04:30pm 28.0 29.2 19.0 58 5.9 SSE 11 22 6 12 1001.4 999.5 0.2
28/04:00pm 29.9 33.1 21.6 61 5.7 ESE 7 11 4 6 1000.8 998.9 0.2
28/03:30pm 30.3 32.7 20.8 56 6.4 E 9 13 5 7 1000.9 999.0 0.2
28/03:00pm 30.9 33.4 21.1 56 6.6 E 9 17 5 9 1000.8 998.9 0.2
28/02:30pm 31.1 33.6 21.0 55 6.8 ENE 9 15 5 8 1001.0 999.1 0.2
28/02:00pm 31.9 34.4 20.2 50 7.9 E 7 15 4 8 1001.4 999.5 0.2
28/01:30pm 31.6 33.8 21.2 54 7.0 ESE 11 17 6 9 1001.6 999.7 0.2
28/01:00pm 30.9 34.2 21.9 58 6.2 ESE 7 13 4 7 1002.3 1000.4 0.2
28/12:30pm 29.9 33.1 21.6 61 5.6 E 7 13 4 7 1002.5 1000.6 0.2
28/12:00pm 29.9 33.4 22.9 66 4.8 ESE 9 17 5 9 1002.9 1001.0 0.2
28/11:30am 29.4 32.7 22.6 67 4.7 E 9 19 5 10 1003.2 1001.3 0.2
28/11:00am 28.4 31.1 22.2 69 4.2 E 11 19 6 10 1003.5 1001.7 0.2
28/10:30am 27.6 29.8 21.9 71 3.9 ENE 13 17 7 9 1003.8 1002.0 0.2
28/10:00am 27.2 29.8 20.5 67 4.5 E 7 13 4 7 1003.9 1002.1 0.0
28/09:30am 25.7 28.0 21.4 77 2.9 E 11 17 6 9 1004.0 1002.2 0.0
28/09:00am 24.2 26.2 20.7 81 2.3 E 11 15 6 8 1004.0 1002.2 1.0
28/08:30am 24.0 27.2 21.3 85 1.8 ESE 6 9 3 5 1004.0 1002.2 1.0
28/08:00am 23.6 26.7 21.5 88 1.4 ESE 7 11 4 6 1003.8 1002.0 1.0
28/07:30am 24.3 28.3 23.1 93 0.8 ESE 7 9 4 5 1003.6 1001.8 1.0
28/07:00am 24.0 28.0 22.8 93 0.8 E 6 7 3 4 1003.3 1001.4 1.0
28/06:30am 23.9 28.0 22.3 91 1.1 E 4 6 2 3 1003.1 1001.2 0.2
28/06:00am 24.2 27.9 22.3 89 1.3 ESE 6 9 3 5 1002.8 1000.9 0.0
28/05:30am 24.2 28.1 22.5 90 1.2 ESE 6 11 3 6 1002.5 1000.6 0.0
28/05:00am 24.2 27.9 22.3 89 1.3 ESE 6 9 3 5 1002.2 1000.3 0.0
28/04:30am 24.2 28.1 22.5 90 1.2 ESE 6 7 3 4 1002.0 1000.1 0.0
28/04:00am 24.0 27.6 22.4 91 1.1 E 7 9 4 5 1002.0 1000.1 0.0
28/03:30am 23.8 26.9 22.2 91 1.1 E 9 13 5 7 1001.9 1000.0 0.0
28/03:00am 23.6 27.0 22.0 91 1.1 E 7 9 4 5 1001.8 999.9 0.0
28/02:30am 23.7 27.3 22.0 90 1.1 E 6 9 3 5 1002.1 1000.2 0.0
28/02:00am 23.6 27.5 21.9 90 1.1 E 4 6 2 3 1002.3 1000.4 0.0
28/01:30am 23.5 26.8 21.8 90 1.1 E 7 11 4 6 1002.4 1000.5 0.0
28/01:00am 23.7 27.0 21.8 89 1.3 E 7 9 4 5 1002.8 1000.9 0.0
28/12:30am 23.7 27.0 21.4 87 1.5 ENE 6 7 3 4 1003.2 1001.3 0.0
28/12:00am 23.6 26.5 21.1 86 1.7 E 7 9 4 5 1003.5 1001.7 0.0
 
Date/Time
EST
Temp
°C
App
Temp
°C
Dew
Point
Rel
Hum
%
Delta-T
°C
Wind Press
QNH
hPa
Press
MSL
hPa
Rain
since 9 am
mm
Dir
 
Spd
km/h
Gust
km/h
Spd
kts
Gust
kts
27/11:30pm 24.0 26.9 20.7 82 2.2 ENE 6 9 3 5 1003.5 1001.7 0.0
27/11:00pm 24.8 26.4 20.7 78 2.7 ENE 13 19 7 10 1003.9 1002.1 0.0
27/10:30pm 24.9 28.2 21.8 83 2.1 E 7 9 4 5 1004.1 1002.3 0.0
27/10:00pm 24.8 27.7 21.7 83 2.1 E 9 13 5 7 1004.0 1002.2 0.0
27/09:30pm 25.4 27.0 21.5 79 2.6 E 15 20 8 11 1003.9 1002.1 0.0
27/09:00pm 25.7 29.2 21.8 79 2.6 E 6 9 3 5 1003.1 1001.2 0.0
27/08:30pm 25.4 28.7 21.5 79 2.6 SW 6 9 3 5 1002.7 1000.8 0.0
27/08:00pm 26.1 29.5 21.7 77 3.0 SSW 6 9 3 5 1002.3 1000.4 0.0
27/07:30pm 26.1 29.4 21.5 76 3.1 WNW 6 11 3 6 1001.7 999.8 0.0

Other Formats:

Comma delimited format used in spreadsheet applications
http://www.bom.gov.au/fwo/IDQ60801/IDQ60801.94399.axf

JavaScript Object Notation format (JSON) in row-major order
http://www.bom.gov.au/fwo/IDQ60801/IDQ60801.94399.json